KLAX/LAX METAR and TAF weather

Enter ICAO airport designator
Station Type Date Time Source
KLAX METAR 2022/01/25 04:53 UTC NOAA

KLAX 250453Z 11003KT 10SM FEW010 FEW250 13/11 A3002 RMK AO2 SLP165 T01330111 $


Station Type Date Time Source
KLAX Decoded METAR 2022/01/25 04:53 UTC NOAA

LOS ANGELES INTERNTL AIRPORT, CA, United States (KLAX) 33-56N 118-23W 46M
Jan 24, 2022 - 11:53 PM EST / 2022.01.25 0453 UTC
Wind: from the ESE (110 degrees) at 3 MPH (3 KT):0
Visibility: 10 mile(s):0
Sky conditions: mostly clear
Temperature: 55.9 F (13.3 C)
Dew Point: 52.0 F (11.1 C)
Relative Humidity: 86%
Pressure (altimeter): 30.02 in. Hg (1016 hPa)
ob: KLAX 250453Z 11003KT 10SM FEW010 FEW250 13/11 A3002 RMK AO2 SLP165 T01330111
cycle: 5

Station Type Date Time Source
KLAX TAF 2022/01/25 06:42 UTC NOAA

TAF KLAX 250541Z 2506/2612 VRB03KT P6SM SKC
FM250800 12005KT 4SM BR OVC005
FM251600 VRB03KT 6SM HZ FEW008
FM252000 26010KT P6SM SCT250
FM260500 VRB03KT P6SM SKC

Example: see airport list